sensor_id;sensor_type;location;lat;lon;timestamp;temperature;humidity
77985;DHT22;67177;47.240;-1.546;2023-04-03T00:02:07;9.00;65.30
77985;DHT22;67177;47.240;-1.546;2023-04-03T00:04:33;9.00;65.40
77985;DHT22;67177;47.240;-1.546;2023-04-03T00:06:58;9.00;65.50
77985;DHT22;67177;47.240;-1.546;2023-04-03T00:09:24;9.00;65.40
77985;DHT22;67177;47.240;-1.546;2023-04-03T00:11:50;9.00;65.50
77985;DHT22;67177;47.240;-1.546;2023-04-03T00:14:16;9.00;65.40
77985;DHT22;67177;47.240;-1.546;2023-04-03T00:16:41;8.90;65.60
77985;DHT22;67177;47.240;-1.546;2023-04-03T00:19:07;8.90;65.50
77985;DHT22;67177;47.240;-1.546;2023-04-03T00:21:33;8.90;65.60
77985;DHT22;67177;47.240;-1.546;2023-04-03T00:23:59;8.90;65.70
77985;DHT22;67177;47.240;-1.546;2023-04-03T00:26:25;8.90;65.60
77985;DHT22;67177;47.240;-1.546;2023-04-03T00:28:50;8.80;65.60
77985;DHT22;67177;47.240;-1.546;2023-04-03T00:31:16;8.80;65.80
77985;DHT22;67177;47.240;-1.546;2023-04-03T00:33:42;8.80;65.80
77985;DHT22;67177;47.240;-1.546;2023-04-03T00:36:09;8.70;65.90
77985;DHT22;67177;47.240;-1.546;2023-04-03T00:38:36;8.70;65.90
77985;DHT22;67177;47.240;-1.546;2023-04-03T00:41:02;8.70;65.90
77985;DHT22;67177;47.240;-1.546;2023-04-03T00:43:28;8.70;65.70
77985;DHT22;67177;47.240;-1.546;2023-04-03T00:45:56;8.70;65.70
77985;DHT22;67177;47.240;-1.546;2023-04-03T00:48:46;8.60;65.90
77985;DHT22;67177;47.240;-1.546;2023-04-03T00:51:21;8.60;66.00
77985;DHT22;67177;47.240;-1.546;2023-04-03T00:53:52;8.50;66.20
77985;DHT22;67177;47.240;-1.546;2023-04-03T00:56:21;8.50;66.30
77985;DHT22;67177;47.240;-1.546;2023-04-03T00:58:54;8.40;66.30
77985;DHT22;67177;47.240;-1.546;2023-04-03T01:01:25;8.40;66.50
77985;DHT22;67177;47.240;-1.546;2023-04-03T01:03:51;8.30;66.50
77985;DHT22;67177;47.240;-1.546;2023-04-03T01:06:21;8.30;66.50
77985;DHT22;67177;47.240;-1.546;2023-04-03T01:08:49;8.30;66.50
77985;DHT22;67177;47.240;-1.546;2023-04-03T01:11:15;8.30;66.60
77985;DHT22;67177;47.240;-1.546;2023-04-03T01:13:41;8.30;66.50
77985;DHT22;67177;47.240;-1.546;2023-04-03T01:16:07;8.30;66.50
77985;DHT22;67177;47.240;-1.546;2023-04-03T01:18:35;8.20;66.50
77985;DHT22;67177;47.240;-1.546;2023-04-03T01:26:54;8.20;66.60
77985;DHT22;67177;47.240;-1.546;2023-04-03T01:29:20;8.10;66.60
77985;DHT22;67177;47.240;-1.546;2023-04-03T01:31:58;8.10;66.60
77985;DHT22;67177;47.240;-1.546;2023-04-03T01:34:24;8.00;66.70
77985;DHT22;67177;47.240;-1.546;2023-04-03T01:36:51;8.00;66.90
77985;DHT22;67177;47.240;-1.546;2023-04-03T01:39:17;7.90;66.80
77985;DHT22;67177;47.240;-1.546;2023-04-03T01:41:43;7.90;66.90
77985;DHT22;67177;47.240;-1.546;2023-04-03T01:44:10;7.90;66.80
77985;DHT22;67177;47.240;-1.546;2023-04-03T01:46:36;7.80;66.60
77985;DHT22;67177;47.240;-1.546;2023-04-03T01:49:03;7.80;66.60
77985;DHT22;67177;47.240;-1.546;2023-04-03T01:51:29;7.80;66.60
77985;DHT22;67177;47.240;-1.546;2023-04-03T01:53:55;7.70;66.60
77985;DHT22;67177;47.240;-1.546;2023-04-03T01:56:21;7.70;66.70
77985;DHT22;67177;47.240;-1.546;2023-04-03T01:58:47;7.70;66.60
77985;DHT22;67177;47.240;-1.546;2023-04-03T02:01:12;7.70;66.60
77985;DHT22;67177;47.240;-1.546;2023-04-03T02:03:38;7.60;66.70
77985;DHT22;67177;47.240;-1.546;2023-04-03T02:06:04;7.60;66.50
77985;DHT22;67177;47.240;-1.546;2023-04-03T02:08:29;7.50;66.60
77985;DHT22;67177;47.240;-1.546;2023-04-03T02:10:55;7.50;66.70
77985;DHT22;67177;47.240;-1.546;2023-04-03T02:13:21;7.50;66.70
77985;DHT22;67177;47.240;-1.546;2023-04-03T02:15:47;7.50;66.70
77985;DHT22;67177;47.240;-1.546;2023-04-03T02:18:13;7.50;66.70
77985;DHT22;67177;47.240;-1.546;2023-04-03T02:20:39;7.50;66.50
77985;DHT22;67177;47.240;-1.546;2023-04-03T02:23:04;7.40;66.40
77985;DHT22;67177;47.240;-1.546;2023-04-03T02:25:31;7.40;66.40
77985;DHT22;67177;47.240;-1.546;2023-04-03T02:27:57;7.30;66.50
77985;DHT22;67177;47.240;-1.546;2023-04-03T02:30:23;7.30;66.50
77985;DHT22;67177;47.240;-1.546;2023-04-03T02:32:49;7.30;66.60
77985;DHT22;67177;47.240;-1.546;2023-04-03T02:35:15;7.20;66.40
77985;DHT22;67177;47.240;-1.546;2023-04-03T02:37:40;7.20;66.30
77985;DHT22;67177;47.240;-1.546;2023-04-03T02:40:07;7.20;66.10
77985;DHT22;67177;47.240;-1.546;2023-04-03T02:42:33;7.20;66.10
77985;DHT22;67177;47.240;-1.546;2023-04-03T02:44:58;7.20;66.20
77985;DHT22;67177;47.240;-1.546;2023-04-03T02:47:26;7.10;66.20
77985;DHT22;67177;47.240;-1.546;2023-04-03T02:49:52;7.10;66.30
77985;DHT22;67177;47.240;-1.546;2023-04-03T02:52:18;7.10;66.40
77985;DHT22;67177;47.240;-1.546;2023-04-03T02:54:44;7.00;66.30
77985;DHT22;67177;47.240;-1.546;2023-04-03T02:57:10;7.00;66.30
77985;DHT22;67177;47.240;-1.546;2023-04-03T02:59:36;7.00;66.30
77985;DHT22;67177;47.240;-1.546;2023-04-03T03:02:02;6.90;66.20
77985;DHT22;67177;47.240;-1.546;2023-04-03T03:04:28;6.90;66.40
77985;DHT22;67177;47.240;-1.546;2023-04-03T03:06:53;6.90;66.40
77985;DHT22;67177;47.240;-1.546;2023-04-03T03:09:19;6.80;66.30
77985;DHT22;67177;47.240;-1.546;2023-04-03T03:11:45;6.80;66.20
77985;DHT22;67177;47.240;-1.546;2023-04-03T03:14:10;6.80;66.00
77985;DHT22;67177;47.240;-1.546;2023-04-03T03:16:36;6.80;66.10
77985;DHT22;67177;47.240;-1.546;2023-04-03T03:19:02;6.70;66.10
77985;DHT22;67177;47.240;-1.546;2023-04-03T03:21:28;6.70;66.20
77985;DHT22;67177;47.240;-1.546;2023-04-03T03:23:53;6.70;66.50
77985;DHT22;67177;47.240;-1.546;2023-04-03T03:26:19;6.60;66.50
77985;DHT22;67177;47.240;-1.546;2023-04-03T03:28:45;6.60;66.50
77985;DHT22;67177;47.240;-1.546;2023-04-03T03:31:11;6.60;66.50
77985;DHT22;67177;47.240;-1.546;2023-04-03T03:33:37;6.50;66.50
77985;DHT22;67177;47.240;-1.546;2023-04-03T03:36:03;6.50;66.60
77985;DHT22;67177;47.240;-1.546;2023-04-03T03:38:29;6.50;66.50
77985;DHT22;67177;47.240;-1.546;2023-04-03T03:40:54;6.50;66.50
77985;DHT22;67177;47.240;-1.546;2023-04-03T03:43:20;6.50;66.50
77985;DHT22;67177;47.240;-1.546;2023-04-03T03:45:50;6.50;66.50
77985;DHT22;67177;47.240;-1.546;2023-04-03T03:48:16;6.50;66.50
77985;DHT22;67177;47.240;-1.546;2023-04-03T03:50:41;6.50;66.50
77985;DHT22;67177;47.240;-1.546;2023-04-03T03:53:07;6.50;66.60
77985;DHT22;67177;47.240;-1.546;2023-04-03T03:55:33;6.50;66.60
77985;DHT22;67177;47.240;-1.546;2023-04-03T03:57:58;6.50;66.50
77985;DHT22;67177;47.240;-1.546;2023-04-03T04:00:26;6.50;66.70
77985;DHT22;67177;47.240;-1.546;2023-04-03T04:02:52;6.50;66.50
77985;DHT22;67177;47.240;-1.546;2023-04-03T04:05:18;6.50;66.50
77985;DHT22;67177;47.240;-1.546;2023-04-03T04:07:43;6.50;66.60
77985;DHT22;67177;47.240;-1.546;2023-04-03T04:10:09;6.50;66.50
77985;DHT22;67177;47.240;-1.546;2023-04-03T04:12:35;6.50;66.50
77985;DHT22;67177;47.240;-1.546;2023-04-03T04:15:01;6.50;66.60
77985;DHT22;67177;47.240;-1.546;2023-04-03T04:17:27;6.50;66.50
77985;DHT22;67177;47.240;-1.546;2023-04-03T04:19:53;6.50;66.50
77985;DHT22;67177;47.240;-1.546;2023-04-03T04:22:19;6.50;66.40
77985;DHT22;67177;47.240;-1.546;2023-04-03T04:24:44;6.50;66.50
77985;DHT22;67177;47.240;-1.546;2023-04-03T04:27:10;6.50;66.50
77985;DHT22;67177;47.240;-1.546;2023-04-03T04:29:36;6.40;66.70
77985;DHT22;67177;47.240;-1.546;2023-04-03T04:32:03;6.40;66.70
77985;DHT22;67177;47.240;-1.546;2023-04-03T04:34:29;6.40;66.60
77985;DHT22;67177;47.240;-1.546;2023-04-03T04:36:55;6.40;66.50
77985;DHT22;67177;47.240;-1.546;2023-04-03T04:39:21;6.40;66.50
77985;DHT22;67177;47.240;-1.546;2023-04-03T04:41:46;6.40;66.50
77985;DHT22;67177;47.240;-1.546;2023-04-03T04:44:12;6.40;66.40
77985;DHT22;67177;47.240;-1.546;2023-04-03T04:46:38;6.40;66.40
77985;DHT22;67177;47.240;-1.546;2023-04-03T04:49:03;6.30;66.40
77985;DHT22;67177;47.240;-1.546;2023-04-03T04:51:29;6.30;66.60
77985;DHT22;67177;47.240;-1.546;2023-04-03T04:53:55;6.20;66.70
77985;DHT22;67177;47.240;-1.546;2023-04-03T04:56:21;6.10;66.90
77985;DHT22;67177;47.240;-1.546;2023-04-03T04:58:47;6.10;67.00
77985;DHT22;67177;47.240;-1.546;2023-04-03T05:01:12;6.00;67.00
77985;DHT22;67177;47.240;-1.546;2023-04-03T05:03:38;6.00;67.00
77985;DHT22;67177;47.240;-1.546;2023-04-03T05:06:04;6.00;67.10
77985;DHT22;67177;47.240;-1.546;2023-04-03T05:08:30;6.00;67.00
77985;DHT22;67177;47.240;-1.546;2023-04-03T05:10:56;6.00;66.90
77985;DHT22;67177;47.240;-1.546;2023-04-03T05:13:22;5.90;66.90
77985;DHT22;67177;47.240;-1.546;2023-04-03T05:15:47;5.90;67.00
77985;DHT22;67177;47.240;-1.546;2023-04-03T05:18:13;5.90;67.00
77985;DHT22;67177;47.240;-1.546;2023-04-03T05:20:39;5.90;67.00
77985;DHT22;67177;47.240;-1.546;2023-04-03T05:23:05;5.80;67.00
77985;DHT22;67177;47.240;-1.546;2023-04-03T05:25:31;5.80;67.00
77985;DHT22;67177;47.240;-1.546;2023-04-03T05:27:57;5.80;67.10
77985;DHT22;67177;47.240;-1.546;2023-04-03T05:30:23;5.80;66.90
77985;DHT22;67177;47.240;-1.546;2023-04-03T05:32:48;5.80;66.90
77985;DHT22;67177;47.240;-1.546;2023-04-03T05:35:14;5.80;67.00
77985;DHT22;67177;47.240;-1.546;2023-04-03T05:37:40;5.70;67.00
77985;DHT22;67177;47.240;-1.546;2023-04-03T05:40:07;5.70;67.10
77985;DHT22;67177;47.240;-1.546;2023-04-03T05:42:32;5.70;67.10
77985;DHT22;67177;47.240;-1.546;2023-04-03T05:44:58;5.70;67.10
77985;DHT22;67177;47.240;-1.546;2023-04-03T05:47:24;5.70;67.20
77985;DHT22;67177;47.240;-1.546;2023-04-03T05:49:49;5.60;67.20
77985;DHT22;67177;47.240;-1.546;2023-04-03T05:52:23;5.60;67.20
77985;DHT22;67177;47.240;-1.546;2023-04-03T05:54:49;5.60;67.10
77985;DHT22;67177;47.240;-1.546;2023-04-03T05:57:15;5.60;67.20
77985;DHT22;67177;47.240;-1.546;2023-04-03T05:59:44;5.70;67.10
77985;DHT22;67177;47.240;-1.546;2023-04-03T06:02:19;5.70;67.10
77985;DHT22;67177;47.240;-1.546;2023-04-03T06:04:45;5.70;67.10
77985;DHT22;67177;47.240;-1.546;2023-04-03T06:07:19;5.70;67.00
77985;DHT22;67177;47.240;-1.546;2023-04-03T06:09:48;5.70;66.90
77985;DHT22;67177;47.240;-1.546;2023-04-03T06:12:14;5.70;66.90
77985;DHT22;67177;47.240;-1.546;2023-04-03T06:14:40;5.80;66.80
77985;DHT22;67177;47.240;-1.546;2023-04-03T06:17:06;5.80;66.90
77985;DHT22;67177;47.240;-1.546;2023-04-03T06:19:34;5.80;66.80
77985;DHT22;67177;47.240;-1.546;2023-04-03T06:21:59;5.70;66.90
77985;DHT22;67177;47.240;-1.546;2023-04-03T06:24:25;5.70;66.70
77985;DHT22;67177;47.240;-1.546;2023-04-03T06:26:52;5.80;66.80
77985;DHT22;67177;47.240;-1.546;2023-04-03T06:29:18;5.70;66.80
77985;DHT22;67177;47.240;-1.546;2023-04-03T06:31:45;5.80;66.90
77985;DHT22;67177;47.240;-1.546;2023-04-03T06:34:10;5.80;67.00
77985;DHT22;67177;47.240;-1.546;2023-04-03T06:36:37;5.80;67.10
77985;DHT22;67177;47.240;-1.546;2023-04-03T06:39:03;5.70;67.00
77985;DHT22;67177;47.240;-1.546;2023-04-03T06:41:29;5.70;67.10
77985;DHT22;67177;47.240;-1.546;2023-04-03T06:43:54;5.80;67.10
77985;DHT22;67177;47.240;-1.546;2023-04-03T06:46:23;5.80;67.00
77985;DHT22;67177;47.240;-1.546;2023-04-03T06:48:49;5.80;66.90
77985;DHT22;67177;47.240;-1.546;2023-04-03T06:51:21;5.80;66.70
77985;DHT22;67177;47.240;-1.546;2023-04-03T06:53:48;5.90;66.60
77985;DHT22;67177;47.240;-1.546;2023-04-03T06:56:14;6.00;66.40
77985;DHT22;67177;47.240;-1.546;2023-04-03T06:58:41;6.00;66.30
77985;DHT22;67177;47.240;-1.546;2023-04-03T07:01:08;6.10;66.20
77985;DHT22;67177;47.240;-1.546;2023-04-03T07:03:35;6.20;66.10
77985;DHT22;67177;47.240;-1.546;2023-04-03T07:06:02;6.30;66.20
77985;DHT22;67177;47.240;-1.546;2023-04-03T07:08:28;6.40;66.00
77985;DHT22;67177;47.240;-1.546;2023-04-03T07:10:54;6.50;65.90
77985;DHT22;67177;47.240;-1.546;2023-04-03T07:13:20;6.60;66.00
77985;DHT22;67177;47.240;-1.546;2023-04-03T07:15:46;6.80;65.90
77985;DHT22;67177;47.240;-1.546;2023-04-03T07:18:11;6.90;65.60
77985;DHT22;67177;47.240;-1.546;2023-04-03T07:20:38;7.00;65.60
77985;DHT22;67177;47.240;-1.546;2023-04-03T07:23:04;7.10;65.40
77985;DHT22;67177;47.240;-1.546;2023-04-03T07:25:30;7.30;65.30
77985;DHT22;67177;47.240;-1.546;2023-04-03T07:27:57;7.40;65.10
77985;DHT22;67177;47.240;-1.546;2023-04-03T07:30:23;7.60;64.90
77985;DHT22;67177;47.240;-1.546;2023-04-03T07:32:48;7.70;64.80
77985;DHT22;67177;47.240;-1.546;2023-04-03T07:35:14;7.80;64.60
77985;DHT22;67177;47.240;-1.546;2023-04-03T07:37:40;7.90;64.20
77985;DHT22;67177;47.240;-1.546;2023-04-03T07:40:06;8.10;63.90
77985;DHT22;67177;47.240;-1.546;2023-04-03T07:42:32;8.10;63.80
77985;DHT22;67177;47.240;-1.546;2023-04-03T07:44:58;8.20;63.30
77985;DHT22;67177;47.240;-1.546;2023-04-03T07:47:23;8.30;63.30
77985;DHT22;67177;47.240;-1.546;2023-04-03T07:49:49;8.30;63.30
77985;DHT22;67177;47.240;-1.546;2023-04-03T07:52:15;8.40;63.00
77985;DHT22;67177;47.240;-1.546;2023-04-03T07:54:41;8.50;62.80
77985;DHT22;67177;47.240;-1.546;2023-04-03T07:57:07;8.60;62.50
77985;DHT22;67177;47.240;-1.546;2023-04-03T07:59:33;8.60;62.40
77985;DHT22;67177;47.240;-1.546;2023-04-03T08:01:58;8.70;62.10
77985;DHT22;67177;47.240;-1.546;2023-04-03T08:04:24;8.90;61.80
77985;DHT22;67177;47.240;-1.546;2023-04-03T08:06:51;9.00;61.60
77985;DHT22;67177;47.240;-1.546;2023-04-03T08:09:17;9.10;61.80
77985;DHT22;67177;47.240;-1.546;2023-04-03T08:11:44;9.20;61.30
77985;DHT22;67177;47.240;-1.546;2023-04-03T08:14:10;9.30;61.30
77985;DHT22;67177;47.240;-1.546;2023-04-03T08:16:41;9.40;61.20
77985;DHT22;67177;47.240;-1.546;2023-04-03T08:19:06;9.50;60.60
77985;DHT22;67177;47.240;-1.546;2023-04-03T08:21:33;9.50;59.60
77985;DHT22;67177;47.240;-1.546;2023-04-03T08:23:58;9.60;59.50
77985;DHT22;67177;47.240;-1.546;2023-04-03T08:26:24;9.80;59.40
77985;DHT22;67177;47.240;-1.546;2023-04-03T08:28:52;9.90;59.40
77985;DHT22;67177;47.240;-1.546;2023-04-03T08:31:18;10.00;59.20
77985;DHT22;67177;47.240;-1.546;2023-04-03T08:33:46;10.10;59.10
77985;DHT22;67177;47.240;-1.546;2023-04-03T08:36:26;10.20;58.80
77985;DHT22;67177;47.240;-1.546;2023-04-03T08:38:54;10.20;58.50
77985;DHT22;67177;47.240;-1.546;2023-04-03T08:43:57;10.30;58.10
77985;DHT22;67177;47.240;-1.546;2023-04-03T08:46:32;10.40;58.20
77985;DHT22;67177;47.240;-1.546;2023-04-03T08:49:01;10.50;58.20
77985;DHT22;67177;47.240;-1.546;2023-04-03T08:51:27;10.50;58.00
77985;DHT22;67177;47.240;-1.546;2023-04-03T08:54:05;10.50;57.50
77985;DHT22;67177;47.240;-1.546;2023-04-03T08:56:33;10.50;57.60
77985;DHT22;67177;47.240;-1.546;2023-04-03T08:59:04;10.60;57.30
77985;DHT22;67177;47.240;-1.546;2023-04-03T09:01:40;10.60;57.20
77985;DHT22;67177;47.240;-1.546;2023-04-03T09:04:12;10.70;57.20
77985;DHT22;67177;47.240;-1.546;2023-04-03T09:06:39;10.70;56.80
77985;DHT22;67177;47.240;-1.546;2023-04-03T09:12:13;10.70;56.80
77985;DHT22;67177;47.240;-1.546;2023-04-03T09:17:28;10.60;56.40
77985;DHT22;67177;47.240;-1.546;2023-04-03T09:22:38;10.70;56.80
77985;DHT22;67177;47.240;-1.546;2023-04-03T09:25:08;10.70;56.60
77985;DHT22;67177;47.240;-1.546;2023-04-03T09:27:35;10.80;56.70
77985;DHT22;67177;47.240;-1.546;2023-04-03T09:30:02;10.70;56.70
77985;DHT22;67177;47.240;-1.546;2023-04-03T09:32:31;10.60;56.40
77985;DHT22;67177;47.240;-1.546;2023-04-03T09:37:47;10.50;57.00
77985;DHT22;67177;47.240;-1.546;2023-04-03T09:42:52;10.50;57.30
77985;DHT22;67177;47.240;-1.546;2023-04-03T09:45:33;10.40;57.30
77985;DHT22;67177;47.240;-1.546;2023-04-03T09:50:55;10.30;57.70
77985;DHT22;67177;47.240;-1.546;2023-04-03T09:53:40;10.30;57.60
77985;DHT22;67177;47.240;-1.546;2023-04-03T09:58:46;10.20;57.80
77985;DHT22;67177;47.240;-1.546;2023-04-03T10:06:34;10.40;58.00
77985;DHT22;67177;47.240;-1.546;2023-04-03T10:09:12;10.50;57.80
77985;DHT22;67177;47.240;-1.546;2023-04-03T10:12:04;10.50;58.00
77985;DHT22;67177;47.240;-1.546;2023-04-03T10:14:31;10.50;57.90
77985;DHT22;67177;47.240;-1.546;2023-04-03T10:27:53;10.50;58.00
77985;DHT22;67177;47.240;-1.546;2023-04-03T10:33:23;10.60;57.40
77985;DHT22;67177;47.240;-1.546;2023-04-03T10:36:35;10.50;57.50
77985;DHT22;67177;47.240;-1.546;2023-04-03T10:47:51;10.60;57.60
77985;DHT22;67177;47.240;-1.546;2023-04-03T10:50:35;10.60;57.00
77985;DHT22;67177;47.240;-1.546;2023-04-03T10:53:14;10.50;57.30
77985;DHT22;67177;47.240;-1.546;2023-04-03T10:56:11;10.40;57.40
77985;DHT22;67177;47.240;-1.546;2023-04-03T10:58:48;10.50;57.50
77985;DHT22;67177;47.240;-1.546;2023-04-03T11:01:19;10.60;57.40
77985;DHT22;67177;47.240;-1.546;2023-04-03T11:03:57;10.60;57.40
77985;DHT22;67177;47.240;-1.546;2023-04-03T11:06:27;10.70;57.50
77985;DHT22;67177;47.240;-1.546;2023-04-03T11:09:00;10.90;57.30
77985;DHT22;67177;47.240;-1.546;2023-04-03T11:11:34;10.90;57.10
77985;DHT22;67177;47.240;-1.546;2023-04-03T11:16:53;10.80;57.30
77985;DHT22;67177;47.240;-1.546;2023-04-03T11:19:39;10.80;57.40
77985;DHT22;67177;47.240;-1.546;2023-04-03T11:22:12;10.80;57.00
77985;DHT22;67177;47.240;-1.546;2023-04-03T11:24:43;10.70;57.00
77985;DHT22;67177;47.240;-1.546;2023-04-03T11:27:19;10.60;57.50
77985;DHT22;67177;47.240;-1.546;2023-04-03T11:29:48;10.70;57.70
77985;DHT22;67177;47.240;-1.546;2023-04-03T11:34:59;10.90;57.80
77985;DHT22;67177;47.240;-1.546;2023-04-03T11:37:41;11.00;57.70
77985;DHT22;67177;47.240;-1.546;2023-04-03T11:42:47;11.20;56.90
77985;DHT22;67177;47.240;-1.546;2023-04-03T11:47:56;11.00;57.10
77985;DHT22;67177;47.240;-1.546;2023-04-03T12:05:53;10.70;57.80
77985;DHT22;67177;47.240;-1.546;2023-04-03T12:08:25;10.70;58.00
77985;DHT22;67177;47.240;-1.546;2023-04-03T12:19:01;10.90;58.10
77985;DHT22;67177;47.240;-1.546;2023-04-03T12:26:34;11.50;57.50
77985;DHT22;67177;47.240;-1.546;2023-04-03T12:29:10;11.60;57.20
77985;DHT22;67177;47.240;-1.546;2023-04-03T12:37:39;11.60;56.70
77985;DHT22;67177;47.240;-1.546;2023-04-03T12:40:24;11.70;56.50
77985;DHT22;67177;47.240;-1.546;2023-04-03T12:43:08;11.70;56.40
77985;DHT22;67177;47.240;-1.546;2023-04-03T12:45:51;11.80;56.50
77985;DHT22;67177;47.240;-1.546;2023-04-03T12:48:25;11.90;56.10
77985;DHT22;67177;47.240;-1.546;2023-04-03T12:50:52;11.90;55.50
77985;DHT22;67177;47.240;-1.546;2023-04-03T12:53:35;11.90;55.80
77985;DHT22;67177;47.240;-1.546;2023-04-03T12:58:48;12.10;55.40
77985;DHT22;67177;47.240;-1.546;2023-04-03T13:01:17;12.10;55.40
77985;DHT22;67177;47.240;-1.546;2023-04-03T13:03:46;12.10;55.50
77985;DHT22;67177;47.240;-1.546;2023-04-03T13:06:41;12.20;55.60
77985;DHT22;67177;47.240;-1.546;2023-04-03T13:09:22;12.20;54.70
77985;DHT22;67177;47.240;-1.546;2023-04-03T13:11:50;12.20;54.80
77985;DHT22;67177;47.240;-1.546;2023-04-03T13:14:22;12.20;54.70
77985;DHT22;67177;47.240;-1.546;2023-04-03T13:16:59;12.20;54.50
77985;DHT22;67177;47.240;-1.546;2023-04-03T13:19:27;12.20;54.70
77985;DHT22;67177;47.240;-1.546;2023-04-03T13:22:04;12.20;54.60
77985;DHT22;67177;47.240;-1.546;2023-04-03T13:24:33;12.20;54.70
77985;DHT22;67177;47.240;-1.546;2023-04-03T13:27:00;12.10;54.80
77985;DHT22;67177;47.240;-1.546;2023-04-03T13:29:35;12.10;54.80
77985;DHT22;67177;47.240;-1.546;2023-04-03T13:32:02;12.10;54.50
77985;DHT22;67177;47.240;-1.546;2023-04-03T13:34:36;12.20;54.70
77985;DHT22;67177;47.240;-1.546;2023-04-03T13:37:02;12.20;54.70
77985;DHT22;67177;47.240;-1.546;2023-04-03T13:39:35;12.30;54.90
77985;DHT22;67177;47.240;-1.546;2023-04-03T13:42:22;12.30;54.90
77985;DHT22;67177;47.240;-1.546;2023-04-03T13:44:48;12.30;54.60
77985;DHT22;67177;47.240;-1.546;2023-04-03T13:47:21;12.30;54.40
77985;DHT22;67177;47.240;-1.546;2023-04-03T13:50:23;12.40;54.50
77985;DHT22;67177;47.240;-1.546;2023-04-03T13:53:03;12.50;53.80
77985;DHT22;67177;47.240;-1.546;2023-04-03T13:55:36;12.60;53.70
77985;DHT22;67177;47.240;-1.546;2023-04-03T14:00:47;12.90;53.10
77985;DHT22;67177;47.240;-1.546;2023-04-03T14:03:32;13.10;52.90
77985;DHT22;67177;47.240;-1.546;2023-04-03T14:05:59;13.20;53.00
77985;DHT22;67177;47.240;-1.546;2023-04-03T14:08:26;13.30;52.70
77985;DHT22;67177;47.240;-1.546;2023-04-03T14:10:53;13.40;52.50
77985;DHT22;67177;47.240;-1.546;2023-04-03T14:13:19;13.50;52.50
77985;DHT22;67177;47.240;-1.546;2023-04-03T14:15:47;13.70;52.30
77985;DHT22;67177;47.240;-1.546;2023-04-03T14:18:17;13.70;52.10
77985;DHT22;67177;47.240;-1.546;2023-04-03T14:20:44;13.50;51.80
77985;DHT22;67177;47.240;-1.546;2023-04-03T14:23:10;13.50;51.30
77985;DHT22;67177;47.240;-1.546;2023-04-03T14:25:36;13.30;51.20
77985;DHT22;67177;47.240;-1.546;2023-04-03T14:28:17;13.10;51.50
77985;DHT22;67177;47.240;-1.546;2023-04-03T14:30:44;13.00;51.50
77985;DHT22;67177;47.240;-1.546;2023-04-03T14:33:16;13.10;51.40
77985;DHT22;67177;47.240;-1.546;2023-04-03T14:35:42;13.30;51.30
77985;DHT22;67177;47.240;-1.546;2023-04-03T14:38:23;13.50;50.90
77985;DHT22;67177;47.240;-1.546;2023-04-03T14:40:50;13.60;50.80
77985;DHT22;67177;47.240;-1.546;2023-04-03T14:43:16;13.60;50.80
77985;DHT22;67177;47.240;-1.546;2023-04-03T14:45:43;13.60;50.90
77985;DHT22;67177;47.240;-1.546;2023-04-03T14:48:18;13.40;51.10
77985;DHT22;67177;47.240;-1.546;2023-04-03T14:50:44;13.10;51.20
77985;DHT22;67177;47.240;-1.546;2023-04-03T14:53:11;12.90;51.10
77985;DHT22;67177;47.240;-1.546;2023-04-03T14:55:38;12.70;51.30
77985;DHT22;67177;47.240;-1.546;2023-04-03T14:58:04;12.60;51.30
77985;DHT22;67177;47.240;-1.546;2023-04-03T15:00:29;12.50;51.40
77985;DHT22;67177;47.240;-1.546;2023-04-03T15:02:55;12.50;51.50
77985;DHT22;67177;47.240;-1.546;2023-04-03T15:05:21;12.60;51.70
77985;DHT22;67177;47.240;-1.546;2023-04-03T15:07:57;12.60;51.60
77985;DHT22;67177;47.240;-1.546;2023-04-03T15:10:28;12.70;51.50
77985;DHT22;67177;47.240;-1.546;2023-04-03T15:12:54;12.60;51.80
77985;DHT22;67177;47.240;-1.546;2023-04-03T15:15:22;12.50;51.70
77985;DHT22;67177;47.240;-1.546;2023-04-03T15:17:53;12.20;52.00
77985;DHT22;67177;47.240;-1.546;2023-04-03T15:20:22;12.10;52.00
77985;DHT22;67177;47.240;-1.546;2023-04-03T15:22:48;12.00;52.20
77985;DHT22;67177;47.240;-1.546;2023-04-03T15:25:14;11.90;52.30
77985;DHT22;67177;47.240;-1.546;2023-04-03T15:27:40;11.90;52.40
77985;DHT22;67177;47.240;-1.546;2023-04-03T15:30:11;11.90;52.50
77985;DHT22;67177;47.240;-1.546;2023-04-03T15:32:38;12.00;52.60
77985;DHT22;67177;47.240;-1.546;2023-04-03T15:35:04;12.10;52.50
77985;DHT22;67177;47.240;-1.546;2023-04-03T15:37:30;12.10;52.50
77985;DHT22;67177;47.240;-1.546;2023-04-03T15:39:56;12.10;52.60
77985;DHT22;67177;47.240;-1.546;2023-04-03T15:42:22;12.10;52.70
77985;DHT22;67177;47.240;-1.546;2023-04-03T15:44:47;12.10;52.80
77985;DHT22;67177;47.240;-1.546;2023-04-03T15:47:13;12.10;52.80
77985;DHT22;67177;47.240;-1.546;2023-04-03T15:49:39;12.20;52.80
77985;DHT22;67177;47.240;-1.546;2023-04-03T15:52:04;12.20;52.70
77985;DHT22;67177;47.240;-1.546;2023-04-03T15:54:31;12.20;52.70
77985;DHT22;67177;47.240;-1.546;2023-04-03T15:56:57;12.20;52.70
77985;DHT22;67177;47.240;-1.546;2023-04-03T15:59:22;12.20;52.90
77985;DHT22;67177;47.240;-1.546;2023-04-03T16:01:49;12.20;52.90
77985;DHT22;67177;47.240;-1.546;2023-04-03T16:04:16;12.30;52.80
77985;DHT22;67177;47.240;-1.546;2023-04-03T16:06:42;12.40;52.60
77985;DHT22;67177;47.240;-1.546;2023-04-03T16:09:09;12.60;52.40
77985;DHT22;67177;47.240;-1.546;2023-04-03T16:11:35;12.60;52.40
77985;DHT22;67177;47.240;-1.546;2023-04-03T16:14:02;12.70;52.30
77985;DHT22;67177;47.240;-1.546;2023-04-03T16:16:28;12.70;52.40
77985;DHT22;67177;47.240;-1.546;2023-04-03T16:18:55;12.50;52.30
77985;DHT22;67177;47.240;-1.546;2023-04-03T16:21:21;12.30;52.40
77985;DHT22;67177;47.240;-1.546;2023-04-03T16:23:47;12.00;52.50
77985;DHT22;67177;47.240;-1.546;2023-04-03T16:26:14;12.00;52.70
77985;DHT22;67177;47.240;-1.546;2023-04-03T16:28:40;11.90;52.80
77985;DHT22;67177;47.240;-1.546;2023-04-03T16:31:07;11.90;52.70
77985;DHT22;67177;47.240;-1.546;2023-04-03T16:33:34;12.00;52.70
77985;DHT22;67177;47.240;-1.546;2023-04-03T16:36:00;12.00;52.60
77985;DHT22;67177;47.240;-1.546;2023-04-03T16:38:26;11.90;52.70
77985;DHT22;67177;47.240;-1.546;2023-04-03T16:40:51;11.80;52.90
77985;DHT22;67177;47.240;-1.546;2023-04-03T16:43:22;11.70;53.10
77985;DHT22;67177;47.240;-1.546;2023-04-03T16:45:48;11.70;53.20
77985;DHT22;67177;47.240;-1.546;2023-04-03T16:48:13;11.60;53.30
77985;DHT22;67177;47.240;-1.546;2023-04-03T16:50:39;11.60;53.20
77985;DHT22;67177;47.240;-1.546;2023-04-03T16:53:05;11.70;53.40
77985;DHT22;67177;47.240;-1.546;2023-04-03T16:55:35;11.80;53.30
77985;DHT22;67177;47.240;-1.546;2023-04-03T16:58:01;11.90;53.30
77985;DHT22;67177;47.240;-1.546;2023-04-03T17:00:30;12.00;53.30
77985;DHT22;67177;47.240;-1.546;2023-04-03T17:02:55;12.10;53.20
77985;DHT22;67177;47.240;-1.546;2023-04-03T17:05:21;12.10;53.20
77985;DHT22;67177;47.240;-1.546;2023-04-03T17:07:47;12.10;53.30
77985;DHT22;67177;47.240;-1.546;2023-04-03T17:10:13;12.00;53.40
77985;DHT22;67177;47.240;-1.546;2023-04-03T17:12:39;11.80;53.70
77985;DHT22;67177;47.240;-1.546;2023-04-03T17:15:05;11.70;53.60
77985;DHT22;67177;47.240;-1.546;2023-04-03T17:17:31;11.70;53.60
77985;DHT22;67177;47.240;-1.546;2023-04-03T17:19:57;11.70;53.60